Observations for CAMBRIDGE, United Kingdom (EGSC)

EGSC 241750Z VRB01KT CAVOK 02/00 Q1012  
EGSC 241720Z VRB02KT CAVOK 03/01 Q1012  
EGSC 241650Z VRB02KT CAVOK 04/01 Q1012  
EGSC 241620Z 26003KT CAVOK 05/01 Q1012  
EGSC 241550Z 27005KT CAVOK 06/01 Q1012  
EGSC 241520Z 25007KT CAVOK 06/01 Q1012  
EGSC 241450Z 25004KT CAVOK 07/01 Q1012  
EGSC 241420Z 28004KT CAVOK 07/01 Q1012  
EGSC 241350Z 29004KT CAVOK 07/00 Q1011  
EGSC 241320Z 29005KT CAVOK 07/00 Q1011  
EGSC 241250Z 29004KT 250V320 CAVOK 08/01 Q1011  
EGSC 241220Z 33006KT CAVOK 08/01 Q1011  
EGSC 241150Z 31006KT CAVOK 08/01 Q1011  
EGSC 241120Z 31007KT CAVOK 08/01 Q1011  
EGSC 241050Z 31007KT CAVOK 07/02 Q1011  
EGSC 241020Z 30007KT CAVOK 07/02 Q1011  
EGSC 240950Z 28004KT 250V320 CAVOK 06/02 Q1010  
EGSC 240920Z 24005KT CAVOK 03/03 Q1010  
EGSC 240850Z 22005KT CAVOK 02/01 Q1010  
EGSC 240820Z 24006KT CAVOK 02/01 Q1009  
EGSC 240750Z 24005KT CAVOK 02/01 Q1009